Time;durP1;ratioP1;P1;durP2;ratioP2;P2;SDS_P1;SDS_P2;PMS_P1;PMS_P2;Temp;Humidity;BMP_temperature;BMP_pressure;BME280_temperature;BME280_humidity;BME280_pressure;Samples;Min_cycle;Max_cycle;Signal;HPM_P1;HPM_P2
2022/12/06 00:00:43;;;;;;;20.05;3.47;;;;;;;;;;4994597;28;20698;-89
2022/12/06 00:03:12;;;;;;;16.52;3.65;;;;;;;;;;5002830;28;20099;-89
2022/12/06 00:05:38;;;;;;;10.63;3.88;;;;;;;;;;4995269;28;20065;-89
2022/12/06 00:08:04;;;;;;;11.73;3.05;;;;;;;;;;4994160;28;20026;-89
2022/12/06 00:10:36;;;;;;;20.85;3.58;;;;;;;;;;5007899;28;20049;-89
2022/12/06 00:13:04;;;;;;;14.38;4.43;;;;;;;;;;5026618;28;20068;-88
2022/12/06 00:15:30;;;;;;;11.77;3.92;;;;;;;;;;5009415;28;20036;-89
2022/12/06 00:17:56;;;;;;;9.55;3.55;;;;;;;;;;5022892;28;20017;-89
2022/12/06 00:20:22;;;;;;;11.50;3.63;;;;;;;;;;5008211;28;20052;-89
2022/12/06 00:22:49;;;;;;;15.10;3.40;;;;;;;;;;4990156;28;20030;-89
2022/12/06 00:25:15;;;;;;;13.50;2.95;;;;;;;;;;5005165;28;20088;-89
2022/12/06 00:27:41;;;;;;;8.65;3.22;;;;;;;;;;5005766;28;20462;-89
2022/12/06 00:30:07;;;;;;;10.18;2.95;;;;;;;;;;5012155;28;20381;-89
2022/12/06 00:32:33;;;;;;;15.73;3.30;;;;;;;;;;5024003;28;20564;-88
2022/12/06 00:34:59;;;;;;;13.35;3.03;;;;;;;;;;5019500;28;20021;-88
2022/12/06 00:37:26;;;;;;;9.38;2.67;;;;;;;;;;4992882;28;20645;-88
2022/12/06 00:39:52;;;;;;;9.75;2.92;;;;;;;;;;4987075;28;20482;-88
2022/12/06 00:42:18;;;;;;;15.57;3.22;;;;;;;;;;5007232;28;20025;-88
2022/12/06 00:44:44;;;;;;;4.90;2.25;;;;;;;;;;5007189;28;20029;-88
2022/12/06 00:47:10;;;;;;;12.73;2.80;;;;;;;;;;4994134;28;20092;-88
2022/12/06 00:49:36;;;;;;;6.72;2.67;;;;;;;;;;5010597;28;20033;-89
2022/12/06 00:52:02;;;;;;;9.18;2.33;;;;;;;;;;5004553;28;20107;-88
2022/12/06 00:54:28;;;;;;;6.18;2.47;;;;;;;;;;4983111;28;20030;-89
2022/12/06 00:56:54;;;;;;;8.30;2.03;;;;;;;;;;5005992;28;20025;-88
2022/12/06 00:59:20;;;;;;;8.73;2.08;;;;;;;;;;5008037;28;20040;-88
2022/12/06 01:01:46;;;;;;;7.43;1.75;;;;;;;;;;4992452;28;20104;-89
2022/12/06 01:04:13;;;;;;;14.55;2.15;;;;;;;;;;5001572;28;20087;-89
2022/12/06 01:06:46;;;;;;;10.60;1.67;;;;;;;;;;4989288;28;20049;-89
2022/12/06 01:09:12;;;;;;;6.25;1.58;;;;;;;;;;5003369;28;20077;-89
2022/12/06 01:11:38;;;;;;;10.38;1.70;;;;;;;;;;5008014;28;20371;-89
2022/12/06 01:14:04;;;;;;;5.65;1.67;;;;;;;;;;4989956;28;20026;-89
2022/12/06 01:16:31;;;;;;;7.05;1.90;;;;;;;;;;5004833;28;20394;-89
2022/12/06 01:18:58;;;;;;;6.18;1.35;;;;;;;;;;5008346;28;20145;-89
2022/12/06 01:21:25;;;;;;;8.43;1.60;;;;;;;;;;5004873;28;20049;-89
2022/12/06 01:23:53;;;;;;;4.75;1.15;;;;;;;;;;5005357;28;20034;-89
2022/12/06 01:26:29;;;;;;;1.95;1.13;;;;;;;;;;5003344;28;20529;-89
2022/12/06 01:28:56;;;;;;;3.85;0.88;;;;;;;;;;5007698;28;20188;-89
2022/12/06 01:31:22;;;;;;;7.90;1.40;;;;;;;;;;4988347;28;20025;-89
2022/12/06 01:33:48;;;;;;;4.35;1.10;;;;;;;;;;5001918;28;20026;-89
2022/12/06 01:36:19;;;;;;;4.72;1.63;;;;;;;;;;5006498;28;20124;-89
2022/12/06 01:38:48;;;;;;;4.65;1.40;;;;;;;;;;4993275;28;20034;-89
2022/12/06 01:41:15;;;;;;;6.30;1.50;;;;;;;;;;5002300;28;20113;-89
2022/12/06 01:43:42;;;;;;;3.20;1.42;;;;;;;;;;5002266;28;20038;-89
2022/12/06 01:46:08;;;;;;;4.72;1.55;;;;;;;;;;5001799;28;20509;-89
2022/12/06 01:48:34;;;;;;;4.82;1.50;;;;;;;;;;5003610;28;20042;-89
2022/12/06 01:51:01;;;;;;;3.15;1.85;;;;;;;;;;5001685;28;20026;-89
2022/12/06 01:53:27;;;;;;;2.53;1.13;;;;;;;;;;5005370;28;20025;-89
2022/12/06 01:55:54;;;;;;;2.40;1.27;;;;;;;;;;5004680;28;20041;-89
2022/12/06 01:58:22;;;;;;;9.10;2.35;;;;;;;;;;5005714;28;20378;-88
2022/12/06 02:00:49;;;;;;;3.95;1.33;;;;;;;;;;5002332;28;20053;-89
2022/12/06 02:03:22;;;;;;;8.32;1.67;;;;;;;;;;4996667;28;20726;-89
2022/12/06 02:05:48;;;;;;;5.80;1.40;;;;;;;;;;4999779;28;20129;-89
2022/12/06 02:08:16;;;;;;;3.97;1.15;;;;;;;;;;4987040;28;20041;-89
2022/12/06 02:10:42;;;;;;;9.32;1.35;;;;;;;;;;4985908;28;20030;-89
2022/12/06 02:13:08;;;;;;;5.40;1.67;;;;;;;;;;4981706;28;20800;-89
2022/12/06 02:15:54;;;;;;;6.20;1.10;;;;;;;;;;4987517;28;20038;-88
2022/12/06 02:18:20;;;;;;;;;;;;;;;;;;5005089;28;20025;-89
2022/12/06 02:21:16;;;;;;;6.05;1.45;;;;;;;;;;5002785;28;20395;-88
2022/12/06 02:24:01;;;;;;;7.28;1.40;;;;;;;;;;4988127;28;20038;-88
2022/12/06 02:26:30;;;;;;;9.73;1.48;;;;;;;;;;5019932;28;20454;-88
2022/12/06 02:29:15;;;;;;;2.45;1.35;;;;;;;;;;5019399;28;20481;-88
2022/12/06 02:31:53;;;;;;;4.32;1.30;;;;;;;;;;5007605;28;20064;-89
2022/12/06 02:34:31;;;;;;;7.13;1.98;;;;;;;;;;5006870;28;20033;-88
2022/12/06 02:37:06;;;;;;;3.58;1.45;;;;;;;;;;4998593;28;20030;-88
2022/12/06 02:39:44;;;;;;;8.50;1.98;;;;;;;;;;4997399;28;20121;-89
2022/12/06 02:42:17;;;;;;;5.07;1.55;;;;;;;;;;5002685;28;20613;-89
2022/12/06 02:45:09;;;;;;;13.85;1.65;;;;;;;;;;5015851;28;20030;-89
2022/12/06 02:47:36;;;;;;;5.10;1.50;;;;;;;;;;5010411;28;20129;-89
2022/12/06 02:50:04;;;;;;;8.73;2.00;;;;;;;;;;4994986;28;20478;-89
2022/12/06 02:52:31;;;;;;;9.73;1.48;;;;;;;;;;5003056;28;20034;-88
2022/12/06 02:55:00;;;;;;;10.88;1.73;;;;;;;;;;4992487;28;20143;-88
2022/12/06 02:57:46;;;;;;;10.40;1.90;;;;;;;;;;5008359;28;20627;-89
2022/12/06 03:00:30;;;;;;;3.75;1.23;;;;;;;;;;5022562;28;20041;-89
2022/12/06 03:03:06;;;;;;;8.20;2.25;;;;;;;;;;5003162;28;20033;-88
2022/12/06 03:05:35;;;;;;;3.20;1.40;;;;;;;;;;5023540;28;20475;-89
2022/12/06 03:08:05;;;;;;;4.05;1.73;;;;;;;;;;5014942;28;20100;-89
2022/12/06 03:10:31;;;;;;;5.63;2.05;;;;;;;;;;5004465;28;20096;-89
2022/12/06 03:13:16;;;;;;;8.30;1.83;;;;;;;;;;5023638;28;20022;-88
2022/12/06 03:15:47;;;;;;;10.63;2.38;;;;;;;;;;5007863;28;20268;-88
2022/12/06 03:18:19;;;;;;;6.30;1.60;;;;;;;;;;5004887;28;20026;-88
2022/12/06 03:20:53;;;;;;;7.35;1.98;;;;;;;;;;5010300;28;20033;-88
2022/12/06 03:23:31;;;;;;;6.15;2.15;;;;;;;;;;5023115;28;20388;-89
2022/12/06 03:25:59;;;;;;;10.07;2.10;;;;;;;;;;5003790;28;20022;-89
2022/12/06 03:28:26;;;;;;;13.75;2.03;;;;;;;;;;5019902;28;20022;-89
2022/12/06 03:30:53;;;;;;;4.32;1.88;;;;;;;;;;4993314;28;20052;-89
2022/12/06 03:33:22;;;;;;;8.63;1.65;;;;;;;;;;5008055;28;20033;-89
2022/12/06 03:35:50;;;;;;;3.80;1.60;;;;;;;;;;5011929;28;20084;-89
2022/12/06 03:38:21;;;;;;;7.90;1.70;;;;;;;;;;5027055;28;20033;-89
2022/12/06 03:40:49;;;;;;;5.88;1.60;;;;;;;;;;5002015;28;20029;-89
2022/12/06 03:43:15;;;;;;;3.42;1.60;;;;;;;;;;5008235;28;20061;-88
2022/12/06 03:46:04;;;;;;;3.63;1.58;;;;;;;;;;5010593;28;20037;-89
2022/12/06 03:48:34;;;;;;;15.10;1.88;;;;;;;;;;5010426;28;20033;-89
2022/12/06 03:51:03;;;;;;;5.53;1.58;;;;;;;;;;5006626;28;20057;-88
2022/12/06 03:53:29;;;;;;;4.22;1.98;;;;;;;;;;5010233;28;20037;-88
2022/12/06 03:55:55;;;;;;;7.03;1.63;;;;;;;;;;5005057;28;20033;-89
2022/12/06 03:58:21;;;;;;;3.20;1.55;;;;;;;;;;5007834;28;20526;-88
2022/12/06 04:00:47;;;;;;;2.83;1.40;;;;;;;;;;5001566;28;20033;-89
2022/12/06 04:03:13;;;;;;;7.95;2.08;;;;;;;;;;4993604;28;20112;-89
2022/12/06 04:05:39;;;;;;;6.55;1.65;;;;;;;;;;5010630;28;20053;-89
2022/12/06 04:08:12;;;;;;;4.03;1.38;;;;;;;;;;4987318;28;20045;-88
2022/12/06 04:10:38;;;;;;;4.15;1.20;;;;;;;;;;5006683;28;20041;-89
2022/12/06 04:13:05;;;;;;;10.88;1.70;;;;;;;;;;5008943;28;20069;-88
2022/12/06 04:15:33;;;;;;;2.08;1.33;;;;;;;;;;5008473;28;20187;-89
2022/12/06 04:18:15;;;;;;;6.70;1.15;;;;;;;;;;5025918;28;20184;-89
2022/12/06 04:23:31;;;;;;;2.13;1.33;;;;;;;;;;5025261;28;20052;-89
2022/12/06 04:25:57;;;;;;;7.40;1.17;;;;;;;;;;5012077;28;20052;-89
2022/12/06 04:39:22;;;;;;;4.10;1.10;;;;;;;;;;5027265;28;20037;-88
2022/12/06 04:44:33;;;;;;;12.38;1.42;;;;;;;;;;5011001;28;20052;-89
2022/12/06 04:47:00;;;;;;;4.68;1.13;;;;;;;;;;5007849;28;20243;-89
2022/12/06 04:49:26;;;;;;;2.75;0.98;;;;;;;;;;5010884;28;20152;-89
2022/12/06 04:51:52;;;;;;;4.47;1.40;;;;;;;;;;5006671;28;20485;-89
2022/12/06 04:54:18;;;;;;;1.52;1.00;;;;;;;;;;5004586;28;20414;-89
2022/12/06 04:56:44;;;;;;;15.88;1.67;;;;;;;;;;4986511;28;20116;-89
2022/12/06 04:59:10;;;;;;;7.28;1.40;;;;;;;;;;5008158;28;20037;-89
2022/12/06 05:01:36;;;;;;;1.88;0.90;;;;;;;;;;5001591;28;20038;-90
2022/12/06 05:04:02;;;;;;;2.53;0.90;;;;;;;;;;5010335;28;20165;-89
2022/12/06 05:06:28;;;;;;;4.82;1.27;;;;;;;;;;5004994;28;20493;-89
2022/12/06 05:08:54;;;;;;;7.30;1.13;;;;;;;;;;4998608;28;20077;-89
2022/12/06 05:11:20;;;;;;;2.63;1.25;;;;;;;;;;5021933;28;20044;-89
2022/12/06 05:13:46;;;;;;;3.55;1.30;;;;;;;;;;4985602;28;20038;-89
2022/12/06 05:16:12;;;;;;;4.20;1.35;;;;;;;;;;5001941;28;20041;-89
2022/12/06 05:18:39;;;;;;;2.15;1.08;;;;;;;;;;4991313;28;20038;-89
2022/12/06 05:21:06;;;;;;;2.42;1.52;;;;;;;;;;5001750;28;20040;-89
2022/12/06 05:23:35;;;;;;;1.73;1.08;;;;;;;;;;5004977;28;20034;-89
2022/12/06 05:26:03;;;;;;;3.08;1.00;;;;;;;;;;5003754;28;20029;-88
2022/12/06 05:28:29;;;;;;;3.10;1.27;;;;;;;;;;5001210;28;20049;-88
2022/12/06 05:30:56;;;;;;;5.75;1.50;;;;;;;;;;5003044;28;20022;-89
2022/12/06 05:33:22;;;;;;;5.90;1.58;;;;;;;;;;5002796;28;20076;-89
2022/12/06 05:35:48;;;;;;;7.20;2.00;;;;;;;;;;5003560;28;20326;-88
2022/12/06 05:38:14;;;;;;;2.80;1.52;;;;;;;;;;5003560;28;20033;-89
2022/12/06 05:40:41;;;;;;;8.77;2.00;;;;;;;;;;4999468;28;20093;-88
2022/12/06 05:43:07;;;;;;;5.50;1.83;;;;;;;;;;5009530;28;20042;-89
2022/12/06 05:45:33;;;;;;;25.77;7.85;;;;;;;;;;5000192;28;20030;-89
2022/12/06 05:47:59;;;;;;;8.35;2.53;;;;;;;;;;5002599;28;20030;-89
2022/12/06 05:50:25;;;;;;;5.10;1.80;;;;;;;;;;4998486;28;20091;-89
2022/12/06 05:52:58;;;;;;;4.93;2.13;;;;;;;;;;5000809;28;20037;-90
2022/12/06 05:55:24;;;;;;;7.38;1.90;;;;;;;;;;5001111;28;20030;-89
2022/12/06 05:57:51;;;;;;;4.28;1.88;;;;;;;;;;5001092;28;20362;-89
2022/12/06 06:00:18;;;;;;;9.20;2.05;;;;;;;;;;5003323;28;20026;-89
2022/12/06 06:02:45;;;;;;;6.22;2.20;;;;;;;;;;5003978;28;20478;-89
2022/12/06 06:05:11;;;;;;;3.72;1.85;;;;;;;;;;4998028;28;20050;-90
2022/12/06 06:07:44;;;;;;;6.40;2.45;;;;;;;;;;4997709;28;20050;-89
2022/12/06 06:10:10;;;;;;;5.85;1.70;;;;;;;;;;5003433;28;20034;-89
2022/12/06 06:12:36;;;;;;;5.22;2.08;;;;;;;;;;4999551;28;20528;-90
2022/12/06 06:15:05;;;;;;;8.98;2.15;;;;;;;;;;5018636;28;20502;-90
2022/12/06 06:17:32;;;;;;;3.03;1.83;;;;;;;;;;4985519;28;20041;-90
2022/12/06 06:19:58;;;;;;;7.40;2.30;;;;;;;;;;4996626;28;20030;-89
2022/12/06 06:22:24;;;;;;;7.60;2.60;;;;;;;;;;4984143;28;20065;-89
2022/12/06 06:24:50;;;;;;;3.75;2.13;;;;;;;;;;4985508;28;20057;-90
2022/12/06 06:27:16;;;;;;;12.13;2.75;;;;;;;;;;4999909;28;21404;-89
2022/12/06 06:29:42;;;;;;;6.55;2.50;;;;;;;;;;5003648;28;20034;-89
2022/12/06 06:32:08;;;;;;;18.23;2.72;;;;;;;;;;5003274;28;20580;-89
2022/12/06 06:34:34;;;;;;;9.50;2.67;;;;;;;;;;5004033;28;20033;-89
2022/12/06 06:37:00;;;;;;;7.57;2.67;;;;;;;;;;4997416;28;20038;-89
2022/12/06 06:39:26;;;;;;;5.65;2.20;;;;;;;;;;5003532;28;20195;-90
2022/12/06 06:41:52;;;;;;;8.82;2.38;;;;;;;;;;5001235;28;20506;-89
2022/12/06 06:44:18;;;;;;;14.30;2.50;;;;;;;;;;4998853;28;20393;-89
2022/12/06 06:46:44;;;;;;;12.32;2.85;;;;;;;;;;4988273;28;20041;-90
2022/12/06 06:49:11;;;;;;;6.35;2.97;;;;;;;;;;5004389;28;20045;-90
2022/12/06 06:51:37;;;;;;;4.32;2.13;;;;;;;;;;4998556;28;20041;-90
2022/12/06 06:54:03;;;;;;;8.88;2.65;;;;;;;;;;4996871;28;20076;-89
2022/12/06 06:56:29;;;;;;;12.13;2.47;;;;;;;;;;4983649;28;20043;-90
2022/12/06 06:58:55;;;;;;;7.75;2.50;;;;;;;;;;4994036;28;20038;-90
2022/12/06 07:01:22;;;;;;;4.13;2.65;;;;;;;;;;4998574;28;20054;-89
2022/12/06 07:03:50;;;;;;;13.50;2.40;;;;;;;;;;5000111;28;20029;-90
2022/12/06 07:06:17;;;;;;;7.13;2.60;;;;;;;;;;4998832;28;20357;-89
2022/12/06 07:08:43;;;;;;;7.43;3.10;;;;;;;;;;4999285;28;20116;-89
2022/12/06 07:11:09;;;;;;;10.80;2.70;;;;;;;;;;4990764;28;20509;-89
2022/12/06 07:13:36;;;;;;;10.30;3.13;;;;;;;;;;5003897;28;20536;-90
2022/12/06 07:16:06;;;;;;;13.63;3.63;;;;;;;;;;5000800;28;20031;-89
2022/12/06 07:18:32;;;;;;;10.93;3.22;;;;;;;;;;5002979;28;20492;-89
2022/12/06 07:21:00;;;;;;;4.25;2.78;;;;;;;;;;4999416;28;20026;-89
2022/12/06 07:23:26;;;;;;;14.10;2.97;;;;;;;;;;5002989;28;20129;-89
2022/12/06 07:26:18;;;;;;;15.30;3.85;;;;;;;;;;5003623;28;21270;-89
2022/12/06 07:28:46;;;;;;;8.45;3.67;;;;;;;;;;4995362;28;20176;-90
2022/12/06 07:31:12;;;;;;;9.45;3.42;;;;;;;;;;5002153;28;20029;-89
2022/12/06 07:33:38;;;;;;;5.53;2.78;;;;;;;;;;4999718;28;20030;-89
2022/12/06 07:36:05;;;;;;;6.95;3.35;;;;;;;;;;5000343;28;20490;-88
2022/12/06 07:38:31;;;;;;;10.02;3.72;;;;;;;;;;4982313;28;20048;-88
2022/12/06 07:41:01;;;;;;;7.32;3.35;;;;;;;;;;5001378;28;20092;-89
2022/12/06 07:46:11;;;;;;;9.00;3.75;;;;;;;;;;4996804;28;20080;-90
2022/12/06 07:48:37;;;;;;;7.13;3.55;;;;;;;;;;5000413;28;20034;-90
2022/12/06 07:51:04;;;;;;;9.38;3.65;;;;;;;;;;4999068;28;20026;-90
2022/12/06 07:53:30;;;;;;;16.75;3.47;;;;;;;;;;5001647;28;20052;-89
2022/12/06 07:55:56;;;;;;;13.48;4.30;;;;;;;;;;4992982;28;20564;-89
2022/12/06 07:58:22;;;;;;;13.55;3.88;;;;;;;;;;4994041;28;20477;-89
2022/12/06 08:00:48;;;;;;;7.82;3.92;;;;;;;;;;4987050;28;20040;-89
2022/12/06 08:03:14;;;;;;;9.45;4.05;;;;;;;;;;4999529;28;20437;-90
2022/12/06 08:05:40;;;;;;;15.68;4.32;;;;;;;;;;4993838;28;20104;-89
2022/12/06 08:08:06;;;;;;;15.73;4.40;;;;;;;;;;4992008;28;20058;-90
2022/12/06 08:10:32;;;;;;;15.30;3.88;;;;;;;;;;4981724;28;20124;-90
2022/12/06 08:12:58;;;;;;;7.65;3.45;;;;;;;;;;4984700;28;20035;-90
2022/12/06 08:15:24;;;;;;;7.55;3.42;;;;;;;;;;4981365;28;20034;-89
2022/12/06 08:17:51;;;;;;;6.47;3.35;;;;;;;;;;4969111;28;20038;-89
2022/12/06 08:20:17;;;;;;;9.27;3.58;;;;;;;;;;4986118;28;20449;-90
2022/12/06 08:22:43;;;;;;;8.80;3.22;;;;;;;;;;4977067;28;20117;-90
2022/12/06 08:25:09;;;;;;;14.52;3.70;;;;;;;;;;4976391;28;20529;-89
2022/12/06 08:27:35;;;;;;;13.70;3.45;;;;;;;;;;4986138;28;20034;-90
2022/12/06 08:30:01;;;;;;;11.05;3.55;;;;;;;;;;4978689;28;20022;-90
2022/12/06 08:32:27;;;;;;;15.25;4.07;;;;;;;;;;4971934;28;20085;-89
2022/12/06 08:34:53;;;;;;;11.98;4.05;;;;;;;;;;4978193;28;20414;-90
2022/12/06 08:37:19;;;;;;;8.80;3.10;;;;;;;;;;4981665;28;20125;-89
2022/12/06 08:39:45;;;;;;;8.07;3.03;;;;;;;;;;4967691;28;20128;-89
2022/12/06 08:42:11;;;;;;;5.93;3.38;;;;;;;;;;4980385;28;20038;-90
2022/12/06 08:44:37;;;;;;;6.32;2.95;;;;;;;;;;4984758;28;20133;-90
2022/12/06 08:47:03;;;;;;;9.65;3.40;;;;;;;;;;4958699;28;20036;-89
2022/12/06 08:49:30;;;;;;;12.50;3.35;;;;;;;;;;4998707;28;20022;-91
2022/12/06 08:51:56;;;;;;;15.00;3.05;;;;;;;;;;5000430;28;20030;-90
2022/12/06 08:54:23;;;;;;;6.22;2.88;;;;;;;;;;4970834;28;20117;-90
2022/12/06 08:56:49;;;;;;;6.93;2.70;;;;;;;;;;4982187;28;20197;-89
2022/12/06 08:59:15;;;;;;;8.15;3.15;;;;;;;;;;4968681;28;20044;-89
2022/12/06 09:01:42;;;;;;;8.32;2.83;;;;;;;;;;4984464;28;20117;-89
2022/12/06 09:04:09;;;;;;;11.18;3.67;;;;;;;;;;4999307;28;20168;-89
2022/12/06 09:06:37;;;;;;;14.27;4.20;;;;;;;;;;4970437;28;20048;-90
2022/12/06 09:09:03;;;;;;;9.68;3.50;;;;;;;;;;5014692;28;20489;-90
2022/12/06 09:11:29;;;;;;;15.00;5.72;;;;;;;;;;5000641;28;20021;-90
2022/12/06 09:13:55;;;;;;;19.65;6.43;;;;;;;;;;4999495;28;20022;-90
2022/12/06 09:16:22;;;;;;;16.63;6.70;;;;;;;;;;4999796;28;20244;-89
2022/12/06 09:18:50;;;;;;;14.82;4.72;;;;;;;;;;5003256;28;20424;-89
2022/12/06 09:21:17;;;;;;;8.70;4.10;;;;;;;;;;4997303;28;20060;-89
2022/12/06 09:23:43;;;;;;;10.05;4.20;;;;;;;;;;5019069;28;20041;-89
2022/12/06 09:26:09;;;;;;;13.40;3.60;;;;;;;;;;4984666;28;20041;-90
2022/12/06 09:28:36;;;;;;;12.85;4.10;;;;;;;;;;4985127;28;20393;-89
2022/12/06 09:31:03;;;;;;;12.63;4.35;;;;;;;;;;5002709;28;20026;-90
2022/12/06 09:33:29;;;;;;;11.52;4.18;;;;;;;;;;5021007;28;20049;-90
2022/12/06 09:35:56;;;;;;;8.68;4.28;;;;;;;;;;5003689;28;20040;-90
2022/12/06 09:38:23;;;;;;;12.07;5.80;;;;;;;;;;5002441;28;20132;-90
2022/12/06 09:40:50;;;;;;;11.85;5.05;;;;;;;;;;5001308;28;20057;-90
2022/12/06 09:43:29;;;;;;;12.75;4.47;;;;;;;;;;5020448;28;20034;-90
2022/12/06 09:46:04;;;;;;;12.82;4.70;;;;;;;;;;5007279;28;20064;-89
2022/12/06 09:48:53;;;;;;;8.02;3.58;;;;;;;;;;4992603;28;20489;-88
2022/12/06 09:51:39;;;;;;;17.85;4.15;;;;;;;;;;5017874;28;20094;-88
2022/12/06 09:54:11;;;;;;;13.05;4.07;;;;;;;;;;4999592;28;20036;-88
2022/12/06 09:56:49;;;;;;;9.60;4.45;;;;;;;;;;4999626;28;20052;-88
2022/12/06 09:59:36;;;;;;;15.20;4.47;;;;;;;;;;5002364;28;20509;-88
2022/12/06 10:02:12;;;;;;;8.07;3.90;;;;;;;;;;5007129;28;20374;-88
2022/12/06 10:04:46;;;;;;;10.38;3.78;;;;;;;;;;5005598;28;20044;-88
2022/12/06 10:07:30;;;;;;;7.32;3.17;;;;;;;;;;5021963;28;20030;-88
2022/12/06 10:09:56;;;;;;;14.65;4.25;;;;;;;;;;5010023;28;20455;-87
2022/12/06 10:12:37;;;;;;;7.30;3.17;;;;;;;;;;5022158;28;20029;-87
2022/12/06 10:15:03;;;;;;;5.68;3.60;;;;;;;;;;5021949;28;20076;-88
2022/12/06 10:17:35;;;;;;;6.03;3.33;;;;;;;;;;5007354;28;20385;-88
2022/12/06 10:20:16;;;;;;;13.32;3.75;;;;;;;;;;5005909;28;20354;-88
2022/12/06 10:22:45;;;;;;;8.57;4.10;;;;;;;;;;5013210;28;20035;-87
2022/12/06 10:25:25;;;;;;;7.35;3.58;;;;;;;;;;5019175;28;20040;-88
2022/12/06 10:28:00;;;;;;;11.20;3.97;;;;;;;;;;4999142;28;20033;-88
2022/12/06 10:30:26;;;;;;;6.72;3.42;;;;;;;;;;5005922;28;20499;-88
2022/12/06 10:32:56;;;;;;;5.35;3.05;;;;;;;;;;4988976;28;20029;-88
2022/12/06 10:35:37;;;;;;;4.13;2.50;;;;;;;;;;5000360;28;20076;-88
2022/12/06 10:38:16;;;;;;;4.25;2.75;;;;;;;;;;5003596;28;20030;-88
2022/12/06 10:40:51;;;;;;;7.75;2.60;;;;;;;;;;5004623;28;20030;-88
2022/12/06 10:43:19;;;;;;;15.82;2.22;;;;;;;;;;5016460;28;20258;-88
2022/12/06 10:48:42;;;;;;;;;;;;;;;;;;5019628;28;20036;-87
2022/12/06 10:51:14;;;;;;;6.40;2.33;;;;;;;;;;5018627;28;19913;-88
2022/12/06 10:53:43;;;;;;;3.63;2.33;;;;;;;;;;5016922;28;20068;-88
2022/12/06 10:56:14;;;;;;;5.72;1.88;;;;;;;;;;5000953;28;20048;-87
2022/12/06 10:58:46;;;;;;;4.63;2.28;;;;;;;;;;5013738;28;20048;-88
2022/12/06 11:01:18;;;;;;;2.97;2.03;;;;;;;;;;5015326;28;20037;-88
2022/12/06 11:03:49;;;;;;;3.47;2.35;;;;;;;;;;5020131;28;20121;-88
2022/12/06 11:06:31;;;;;;;5.53;2.30;;;;;;;;;;4992477;28;20525;-89
2022/12/06 11:08:59;;;;;;;5.82;2.35;;;;;;;;;;5018052;28;20501;-89
2022/12/06 11:11:31;;;;;;;9.25;3.00;;;;;;;;;;5004620;28;20033;-88
2022/12/06 11:14:15;;;;;;;8.25;3.17;;;;;;;;;;5019520;28;20030;-89
2022/12/06 11:16:44;;;;;;;9.68;3.20;;;;;;;;;;5008004;28;20080;-88
2022/12/06 11:19:29;;;;;;;12.30;2.72;;;;;;;;;;5007568;28;20041;-88
2022/12/06 11:22:15;;;;;;;2.63;1.58;;;;;;;;;;5021468;28;20073;-88
2022/12/06 11:24:46;;;;;;;12.07;1.67;;;;;;;;;;4999668;28;20469;-88
2022/12/06 11:27:14;;;;;;;4.60;1.88;;;;;;;;;;5022824;28;20500;-88
2022/12/06 11:29:41;;;;;;;4.40;2.03;;;;;;;;;;5007248;28;20021;-88
2022/12/06 11:32:08;;;;;;;3.45;1.83;;;;;;;;;;5001561;28;20451;-88
2022/12/06 11:34:37;;;;;;;3.13;1.50;;;;;;;;;;5024427;28;20542;-88
2022/12/06 11:37:04;;;;;;;2.60;1.67;;;;;;;;;;5018996;28;20030;-88
2022/12/06 11:39:31;;;;;;;7.40;2.20;;;;;;;;;;5021199;28;20767;-89
2022/12/06 11:41:59;;;;;;;3.65;2.10;;;;;;;;;;4994259;28;20041;-89
2022/12/06 11:44:26;;;;;;;3.97;2.00;;;;;;;;;;5003481;28;20076;-88
2022/12/06 11:46:57;;;;;;;4.00;1.85;;;;;;;;;;5004557;28;21040;-88
2022/12/06 11:49:39;;;;;;;4.65;1.92;;;;;;;;;;5007508;28;20039;-88
2022/12/06 11:52:08;;;;;;;2.92;1.70;;;;;;;;;;5006972;28;20065;-88
2022/12/06 11:54:38;;;;;;;6.68;2.08;;;;;;;;;;5017408;28;20054;-88
2022/12/06 11:57:12;;;;;;;3.35;2.63;;;;;;;;;;4999052;28;20080;-88
2022/12/06 11:59:38;;;;;;;6.97;2.47;;;;;;;;;;5018720;28;20032;-88
2022/12/06 12:02:04;;;;;;;4.72;2.38;;;;;;;;;;5004879;28;20449;-88
2022/12/06 12:04:38;;;;;;;3.60;2.28;;;;;;;;;;5000928;28;20068;-89
2022/12/06 12:07:10;;;;;;;9.25;2.50;;;;;;;;;;5003134;28;20056;-88
2022/12/06 12:10:03;;;;;;;2.85;2.20;;;;;;;;;;5020669;28;20351;-87
2022/12/06 12:15:20;;;;;;;4.38;2.20;;;;;;;;;;5020033;28;20149;-88
2022/12/06 12:17:47;;;;;;;4.18;2.03;;;;;;;;;;4988934;28;20029;-88
2022/12/06 12:20:22;;;;;;;3.38;2.40;;;;;;;;;;5005715;28;20497;-88
2022/12/06 12:22:53;;;;;;;6.03;2.45;;;;;;;;;;5002112;28;20026;-88
2022/12/06 12:25:20;;;;;;;5.65;2.50;;;;;;;;;;4999078;28;20079;-88
2022/12/06 12:27:48;;;;;;;5.68;2.33;;;;;;;;;;5001381;28;20091;-87
2022/12/06 12:30:23;;;;;;;2.35;1.73;;;;;;;;;;4997552;28;20038;-88
2022/12/06 12:33:05;;;;;;;5.53;1.90;;;;;;;;;;5015482;28;20026;-89
2022/12/06 12:35:36;;;;;;;3.47;1.60;;;;;;;;;;5002068;28;20044;-88
2022/12/06 12:38:11;;;;;;;5.00;2.28;;;;;;;;;;5004577;28;20429;-88
2022/12/06 12:40:45;;;;;;;3.77;1.67;;;;;;;;;;5002800;28;20052;-88
2022/12/06 12:43:11;;;;;;;3.55;1.73;;;;;;;;;;5004343;28;20379;-88
2022/12/06 12:45:39;;;;;;;6.10;1.10;;;;;;;;;;5019198;28;20025;-89
2022/12/06 12:48:22;;;;;;;3.75;1.60;;;;;;;;;;5003790;28;20032;-88
2022/12/06 12:50:52;;;;;;;1.77;1.30;;;;;;;;;;5004799;28;20029;-88
2022/12/06 12:53:29;;;;;;;4.90;1.55;;;;;;;;;;5006572;28;20037;-89
2022/12/06 12:56:15;;;;;;;4.97;1.73;;;;;;;;;;5012079;28;20398;-89
2022/12/06 12:58:42;;;;;;;3.90;1.98;;;;;;;;;;5003991;28;20488;-89
2022/12/06 13:01:23;;;;;;;6.15;1.80;;;;;;;;;;5005690;28;20712;-89
2022/12/06 13:03:55;;;;;;;4.70;2.42;;;;;;;;;;5007113;28;20056;-89
2022/12/06 13:06:27;;;;;;;5.72;2.60;;;;;;;;;;4995796;28;20118;-88
2022/12/06 13:09:02;;;;;;;3.58;1.90;;;;;;;;;;4999614;28;20456;-88
2022/12/06 13:11:29;;;;;;;3.22;2.25;;;;;;;;;;5023234;28;20025;-88
2022/12/06 13:13:56;;;;;;;4.88;2.20;;;;;;;;;;5020424;28;20026;-88
2022/12/06 13:16:30;;;;;;;3.50;1.98;;;;;;;;;;5016898;28;20125;-89
2022/12/06 13:18:57;;;;;;;3.40;2.00;;;;;;;;;;5006703;28;20420;-89
2022/12/06 13:21:26;;;;;;;7.45;2.20;;;;;;;;;;5016688;28;20038;-89
2022/12/06 13:23:53;;;;;;;4.35;1.88;;;;;;;;;;5011504;28;20040;-88
2022/12/06 13:26:24;;;;;;;6.40;2.42;;;;;;;;;;5020953;28;20037;-88
2022/12/06 13:28:52;;;;;;;7.50;2.20;;;;;;;;;;5026878;28;20021;-89
2022/12/06 13:31:23;;;;;;;3.75;1.90;;;;;;;;;;5005165;28;20071;-89
2022/12/06 13:33:52;;;;;;;5.05;2.20;;;;;;;;;;5002442;28;20022;-89
2022/12/06 13:36:19;;;;;;;4.50;1.85;;;;;;;;;;5004038;28;20555;-89
2022/12/06 13:38:45;;;;;;;7.00;1.50;;;;;;;;;;4999566;28;20569;-89
2022/12/06 13:42:16;;;;;;;6.45;2.00;;;;;;;;;;4991996;28;20424;-89
2022/12/06 13:44:24;;;;;;;8.20;2.35;;;;;;;;;;5020263;28;20065;-89
2022/12/06 13:46:50;;;;;;;4.93;2.13;;;;;;;;;;5018074;28;20041;-89
2022/12/06 13:49:24;;;;;;;7.63;1.88;;;;;;;;;;5002128;28;20049;-89
2022/12/06 13:51:50;;;;;;;5.30;2.28;;;;;;;;;;5021233;28;20097;-89
2022/12/06 13:54:21;;;;;;;6.03;1.95;;;;;;;;;;5003508;28;20388;-90
2022/12/06 13:56:47;;;;;;;3.65;2.38;;;;;;;;;;5004642;28;20033;-89
2022/12/06 13:59:14;;;;;;;12.20;2.63;;;;;;;;;;4986714;28;20533;-88
2022/12/06 14:01:40;;;;;;;4.43;2.63;;;;;;;;;;5006306;28;20508;-89
2022/12/06 14:04:25;;;;;;;6.78;2.65;;;;;;;;;;5016261;28;20025;-90
2022/12/06 14:06:52;;;;;;;11.65;3.03;;;;;;;;;;5006882;28;20116;-89
2022/12/06 14:09:18;;;;;;;6.90;2.60;;;;;;;;;;5016260;28;20037;-89
2022/12/06 14:11:44;;;;;;;8.32;2.53;;;;;;;;;;5005343;28;20474;-89
2022/12/06 14:14:16;;;;;;;7.32;2.15;;;;;;;;;;4998668;28;20631;-89
2022/12/06 14:16:45;;;;;;;7.00;2.75;;;;;;;;;;5013125;28;20465;-89
2022/12/06 14:19:22;;;;;;;9.93;2.90;;;;;;;;;;4994856;28;20080;-89
2022/12/06 14:21:54;;;;;;;12.35;3.15;;;;;;;;;;4999755;28;20497;-89
2022/12/06 14:24:32;;;;;;;10.18;3.00;;;;;;;;;;4989719;28;20076;-89
2022/12/06 14:27:05;;;;;;;6.95;3.03;;;;;;;;;;5001169;28;20076;-89
2022/12/06 14:29:31;;;;;;;6.35;3.05;;;;;;;;;;4999409;28;20038;-89
2022/12/06 14:31:58;;;;;;;7.32;2.63;;;;;;;;;;4983091;28;20429;-89
2022/12/06 14:34:25;;;;;;;7.70;2.55;;;;;;;;;;4998202;28;20026;-89
2022/12/06 14:36:51;;;;;;;7.72;2.30;;;;;;;;;;4999587;28;20393;-89
2022/12/06 14:39:18;;;;;;;3.13;1.90;;;;;;;;;;5004091;28;20463;-89
2022/12/06 14:44:50;;;;;;;4.70;2.30;;;;;;;;;;4999240;28;20096;-89
2022/12/06 14:47:17;;;;;;;7.90;1.85;;;;;;;;;;5013803;28;20363;-89
2022/12/06 14:52:30;;;;;;;11.10;2.70;;;;;;;;;;5001290;28;20052;-89
2022/12/06 14:55:28;;;;;;;4.07;2.55;;;;;;;;;;5003106;28;20061;-89
2022/12/06 14:57:58;;;;;;;3.03;2.00;;;;;;;;;;4989807;28;20509;-89
2022/12/06 15:00:26;;;;;;;5.35;1.60;;;;;;;;;;4989082;28;20089;-89
2022/12/06 15:03:07;;;;;;;6.57;2.10;;;;;;;;;;5002864;28;20085;-89
2022/12/06 15:05:43;;;;;;;6.47;2.20;;;;;;;;;;5002240;28;20030;-89
2022/12/06 15:08:27;;;;;;;5.32;2.33;;;;;;;;;;5020899;28;20113;-89
2022/12/06 15:11:01;;;;;;;3.00;1.98;;;;;;;;;;5000225;28;20045;-89
2022/12/06 15:13:27;;;;;;;9.52;2.80;;;;;;;;;;4987031;28;20164;-89
2022/12/06 15:16:02;;;;;;;8.30;2.50;;;;;;;;;;4988200;28;20085;-89
2022/12/06 15:18:34;;;;;;;4.93;2.20;;;;;;;;;;5003497;28;20049;-89
2022/12/06 15:21:00;;;;;;;7.03;2.42;;;;;;;;;;4986239;28;20212;-89
2022/12/06 15:23:37;;;;;;;5.10;2.45;;;;;;;;;;4988937;28;20034;-89
2022/12/06 15:26:05;;;;;;;6.05;2.20;;;;;;;;;;4988984;28;20517;-89